Time;durP1;ratioP1;P1;durP2;ratioP2;P2;SDS_P1;SDS_P2;PMS_P1;PMS_P2;Temp;Humidity;BMP_temperature;BMP_pressure;BME280_temperature;BME280_humidity;BME280_pressure;Samples;Min_cycle;Max_cycle;Signal;HPM_P1;HPM_P2
2022/09/04 00:02:19;;;;;;;;;;;17.30;93.40;;;;;;6224741;23;19970;-77
2022/09/04 00:04:52;;;;;;;;;;;17.20;93.40;;;;;;6195391;23;20238;-76
2022/09/04 00:07:24;;;;;;;;;;;17.10;93.80;;;;;;6220009;23;19981;-79
2022/09/04 00:10:10;;;;;;;;;;;17.20;93.60;;;;;;6194996;23;19930;-77
2022/09/04 00:13:02;;;;;;;;;;;17.20;93.60;;;;;;6247012;23;20405;-76
2022/09/04 00:15:34;;;;;;;;;;;17.00;93.70;;;;;;6163829;23;19990;-78
2022/09/04 00:18:15;;;;;;;;;;;17.10;93.70;;;;;;6195034;23;19926;-78
2022/09/04 00:20:48;;;;;;;;;;;17.10;93.60;;;;;;6220060;23;19916;-76
2022/09/04 00:23:26;;;;;;;;;;;17.10;93.50;;;;;;6220203;23;19927;-77
2022/09/04 00:26:10;;;;;;;;;;;17.00;93.50;;;;;;6193379;23;19966;-77
2022/09/04 00:28:35;;;;;;;;;;;17.00;93.50;;;;;;6219898;23;19973;-77
2022/09/04 00:31:20;;;;;;;;;;;17.00;93.60;;;;;;6195188;23;20346;-77
2022/09/04 00:34:01;;;;;;;;;;;16.90;93.70;;;;;;6194964;23;20323;-76
2022/09/04 00:36:29;;;;;;;;;;;16.90;93.80;;;;;;6247061;23;19919;-78
2022/09/04 00:39:01;;;;;;;;;;;16.80;93.80;;;;;;6196715;23;19955;-77
2022/09/04 00:41:30;;;;;;;;;;;16.80;93.60;;;;;;6220555;23;19919;-75
2022/09/04 00:44:11;;;;;;;;;;;16.80;93.70;;;;;;6222030;23;19919;-76
2022/09/04 00:46:55;;;;;;;;;;;16.80;93.60;;;;;;6196936;23;20326;-78
2022/09/04 00:49:20;;;;;;;;;;;16.90;93.50;;;;;;6222014;23;19916;-76
2022/09/04 00:51:49;;;;;;;;;;;16.80;93.80;;;;;;6196980;23;19980;-77
2022/09/04 00:54:30;;;;;;;;;;;16.70;93.70;;;;;;6196594;23;19916;-76
2022/09/04 00:57:08;;;;;;;;;;;16.70;93.80;;;;;;6222082;23;19916;-75
2022/09/04 00:59:56;;;;;;;;;;;16.60;93.90;;;;;;6222019;23;19962;-75
2022/09/04 01:02:31;;;;;;;;;;;16.60;93.90;;;;;;6197158;23;20277;-76
2022/09/04 01:05:06;;;;;;;;;;;16.60;94.00;;;;;;6221807;23;19919;-77
2022/09/04 01:07:39;;;;;;;;;;;16.50;94.10;;;;;;6221707;23;20247;-78
2022/09/04 01:10:05;;;;;;;;;;;16.50;94.20;;;;;;6221696;23;20258;-76
2022/09/04 01:12:34;;;;;;;;;;;16.50;94.20;;;;;;6221893;23;19920;-77
2022/09/04 01:15:13;;;;;;;;;;;16.50;94.30;;;;;;6221484;23;20006;-77
2022/09/04 01:17:41;;;;;;;;;;;16.40;94.20;;;;;;6221410;23;19923;-77
2022/09/04 01:20:26;;;;;;;;;;;16.40;94.30;;;;;;6196211;23;19970;-77
2022/09/04 01:22:58;;;;;;;;;;;16.40;94.50;;;;;;6196380;23;19915;-75
2022/09/04 01:25:27;;;;;;;;;;;16.30;94.60;;;;;;6196478;23;19923;-77
2022/09/04 01:27:53;;;;;;;;;;;16.30;94.50;;;;;;6221171;23;20392;-77
2022/09/04 01:30:20;;;;;;;;;;;16.30;94.70;;;;;;6196223;23;19921;-77
2022/09/04 01:32:45;;;;;;;;;;;16.30;94.60;;;;;;6248177;23;20230;-78
2022/09/04 01:35:30;;;;;;;;;;;16.20;94.60;;;;;;6221773;23;19919;-78
2022/09/04 01:38:08;;;;;;;;;;;16.20;94.70;;;;;;6221534;23;20007;-75
2022/09/04 01:40:45;;;;;;;;;;;16.10;94.80;;;;;;6196574;23;20254;-76
2022/09/04 01:43:13;;;;;;;;;;;16.10;95.00;;;;;;6196350;23;19919;-76
2022/09/04 01:45:48;;;;;;;;;;;16.10;95.00;;;;;;6196201;23;19927;-75
2022/09/04 01:48:16;;;;;;;;;;;16.10;95.20;;;;;;6195807;23;19985;-75
2022/09/04 01:50:44;;;;;;;;;;;16.10;95.10;;;;;;6196605;23;19927;-76
2022/09/04 01:53:12;;;;;;;;;;;16.00;95.20;;;;;;6196277;23;19926;-76
2022/09/04 01:55:40;;;;;;;;;;;16.00;95.30;;;;;;6196087;23;19926;-77
2022/09/04 01:58:14;;;;;;;;;;;15.90;95.40;;;;;;6221216;23;19966;-77
2022/09/04 02:00:49;;;;;;;;;;;15.90;95.30;;;;;;6196364;23;19924;-76
2022/09/04 02:03:34;;;;;;;;;;;15.90;95.50;;;;;;6221449;23;20215;-77
2022/09/04 02:06:03;;;;;;;;;;;15.90;95.50;;;;;;6195724;23;19916;-76
2022/09/04 02:08:36;;;;;;;;;;;15.90;95.40;;;;;;6220791;23;19920;-76
2022/09/04 02:11:07;;;;;;;;;;;15.90;95.60;;;;;;6220864;23;20246;-76
2022/09/04 02:13:43;;;;;;;;;;;15.80;95.70;;;;;;6221674;23;19920;-76
2022/09/04 02:16:09;;;;;;;;;;;15.70;95.80;;;;;;6196206;23;19989;-77
2022/09/04 02:18:55;;;;;;;;;;;15.70;96.00;;;;;;6221152;23;19919;-76
2022/09/04 02:21:42;;;;;;;;;;;15.70;96.00;;;;;;6173267;23;19958;-78
2022/09/04 02:24:13;;;;;;;;;;;15.70;96.00;;;;;;6195797;23;20242;-75
2022/09/04 02:26:43;;;;;;;;;;;15.90;96.00;;;;;;6196007;23;20330;-76
2022/09/04 02:29:18;;;;;;;;;;;15.70;95.90;;;;;;6195783;23;19985;-76
2022/09/04 02:31:53;;;;;;;;;;;15.70;96.10;;;;;;6196395;23;19919;-77
2022/09/04 02:34:28;;;;;;;;;;;15.70;96.10;;;;;;6195640;23;19919;-76
2022/09/04 02:36:53;;;;;;;;;;;15.70;96.10;;;;;;6195732;23;19926;-77
2022/09/04 02:39:19;;;;;;;;;;;15.60;96.20;;;;;;6220969;23;19920;-76
2022/09/04 02:42:02;;;;;;;;;;;15.70;96.10;;;;;;6220675;23;20294;-77
2022/09/04 02:44:34;;;;;;;;;;;15.60;96.20;;;;;;6220927;23;19990;-77
2022/09/04 02:47:21;;;;;;;;;;;15.60;96.10;;;;;;6220995;23;19955;-77
2022/09/04 02:49:54;;;;;;;;;;;15.60;96.20;;;;;;6220931;23;19920;-76
2022/09/04 02:52:42;;;;;;;;;;;15.60;96.20;;;;;;6195952;23;19978;-77
2022/09/04 02:55:23;;;;;;;;;;;15.60;96.30;;;;;;6195237;23;19921;-76
2022/09/04 02:58:24;;;;;;;;;;;15.60;96.50;;;;;;6220614;23;19949;-77
2022/09/04 03:00:56;;;;;;;;;;;15.50;96.60;;;;;;6047652;23;19957;-77
2022/09/04 03:03:36;;;;;;;;;;;15.50;96.70;;;;;;6170600;23;19923;-77
2022/09/04 03:06:09;;;;;;;;;;;15.50;96.60;;;;;;6195558;23;19916;-76
2022/09/04 03:08:40;;;;;;;;;;;15.40;96.80;;;;;;6195230;23;19919;-77
2022/09/04 03:11:17;;;;;;;;;;;15.40;96.90;;;;;;6195614;23;19916;-76
2022/09/04 03:13:45;;;;;;;;;;;15.30;97.00;;;;;;6220491;23;20326;-76
2022/09/04 03:16:20;;;;;;;;;;;15.30;97.20;;;;;;6220719;23;20313;-75
2022/09/04 03:19:01;;;;;;;;;;;15.30;97.40;;;;;;6195354;23;20254;-75
2022/09/04 03:21:37;;;;;;;;;;;15.30;97.20;;;;;;6220629;23;19920;-76
2022/09/04 03:24:35;;;;;;;;;;;15.30;97.20;;;;;;6195255;23;19927;-76
2022/09/04 03:27:02;;;;;;;;;;;15.30;97.30;;;;;;6115009;23;20273;-76
2022/09/04 03:29:47;;;;;;;;;;;15.20;97.50;;;;;;6195314;23;19934;-76
2022/09/04 03:32:19;;;;;;;;;;;15.20;97.40;;;;;;6220229;23;19916;-76
2022/09/04 03:34:47;;;;;;;;;;;15.20;97.50;;;;;;6215390;23;19920;-77
2022/09/04 03:37:39;;;;;;;;;;;15.20;97.70;;;;;;6190402;23;19916;-77
2022/09/04 03:40:31;;;;;;;;;;;15.20;97.70;;;;;;6215063;23;20339;-77
2022/09/04 03:42:57;;;;;;;;;;;15.10;97.70;;;;;;6169899;23;19923;-77
2022/09/04 03:45:30;;;;;;;;;;;15.20;97.60;;;;;;6189918;23;19963;-77
2022/09/04 03:48:08;;;;;;;;;;;15.20;97.80;;;;;;6215409;23;19970;-76
2022/09/04 03:50:57;;;;;;;;;;;15.10;97.80;;;;;;6215199;23;19916;-77
2022/09/04 03:53:29;;;;;;;;;;;15.10;97.90;;;;;;6174105;23;20335;-77
2022/09/04 03:56:06;;;;;;;;;;;15.00;98.00;;;;;;6189906;23;19916;-76
2022/09/04 03:58:45;;;;;;;;;;;15.00;98.00;;;;;;6190221;23;19968;-76
2022/09/04 04:01:35;;;;;;;;;;;15.00;98.20;;;;;;6215328;23;19986;-76
2022/09/04 04:04:26;;;;;;;;;;;14.90;98.30;;;;;;6190261;23;19926;-78
2022/09/04 04:07:11;;;;;;;;;;;14.90;98.50;;;;;;6208595;23;19927;-76
2022/09/04 04:09:43;;;;;;;;;;;14.90;98.60;;;;;;6214713;23;19922;-77
2022/09/04 04:12:11;;;;;;;;;;;14.90;98.60;;;;;;6214887;23;19947;-77
2022/09/04 04:14:44;;;;;;;;;;;14.90;98.80;;;;;;6190169;23;19968;-78
2022/09/04 04:17:13;;;;;;;;;;;14.80;98.80;;;;;;6215242;23;20231;-77
2022/09/04 04:19:54;;;;;;;;;;;14.80;99.00;;;;;;6190019;23;19923;-77
2022/09/04 04:22:29;;;;;;;;;;;14.80;98.80;;;;;;6190021;23;19955;-78
2022/09/04 04:25:00;;;;;;;;;;;14.80;99.10;;;;;;6215322;23;19916;-75
2022/09/04 04:27:40;;;;;;;;;;;14.80;99.10;;;;;;6188881;23;19962;-75
2022/09/04 04:30:08;;;;;;;;;;;14.80;99.20;;;;;;6213627;23;19916;-75
2022/09/04 04:32:53;;;;;;;;;;;14.80;99.20;;;;;;6217398;23;20242;-76
2022/09/04 04:35:24;;;;;;;;;;;14.70;99.30;;;;;;6194701;23;20227;-77
2022/09/04 04:37:58;;;;;;;;;;;14.80;99.30;;;;;;6219890;23;19923;-77
2022/09/04 04:40:31;;;;;;;;;;;14.80;99.40;;;;;;6219904;23;19920;-77
2022/09/04 04:43:07;;;;;;;;;;;14.70;99.40;;;;;;6218867;23;20258;-78
2022/09/04 04:45:51;;;;;;;;;;;14.70;99.40;;;;;;6194951;23;19920;-77
2022/09/04 04:48:35;;;;;;;;;;;14.70;99.70;;;;;;6195308;23;20327;-77
2022/09/04 04:51:01;;;;;;;;;;;14.70;99.80;;;;;;6194863;23;20342;-75
2022/09/04 04:53:34;;;;;;;;;;;14.70;99.90;;;;;;6194480;23;19919;-75
2022/09/04 04:56:18;;;;;;;;;;;14.70;99.70;;;;;;6194381;23;20342;-76
2022/09/04 04:58:47;;;;;;;;;;;14.70;99.90;;;;;;6194688;23;19923;-76
2022/09/04 05:01:14;;;;;;;;;;;14.60;99.90;;;;;;6219964;23;19922;-75
2022/09/04 05:03:59;;;;;;;;;;;14.70;99.90;;;;;;6194873;23;19919;-77
2022/09/04 05:06:25;;;;;;;;;;;14.60;99.90;;;;;;6219813;23;19922;-78
2022/09/04 05:09:00;;;;;;;;;;;14.70;99.90;;;;;;6194842;23;19959;-76
2022/09/04 05:11:45;;;;;;;;;;;14.60;99.90;;;;;;6195066;23;20345;-75
2022/09/04 05:14:27;;;;;;;;;;;14.70;99.90;;;;;;6194766;23;19919;-77
2022/09/04 05:17:02;;;;;;;;;;;14.70;99.90;;;;;;6194555;23;20231;-77
2022/09/04 05:19:46;;;;;;;;;;;14.70;99.90;;;;;;6219418;23;19915;-75
2022/09/04 05:22:18;;;;;;;;;;;14.80;99.90;;;;;;6195072;23;19958;-75
2022/09/04 05:25:02;;;;;;;;;;;14.70;99.90;;;;;;6196805;23;19958;-77
2022/09/04 05:27:40;;;;;;;;;;;14.70;99.90;;;;;;6196412;23;19920;-76
2022/09/04 05:30:13;;;;;;;;;;;14.70;99.90;;;;;;6220309;23;19922;-77
2022/09/04 05:32:51;;;;;;;;;;;14.80;99.90;;;;;;6195998;23;19915;-76
2022/09/04 05:35:17;;;;;;;;;;;14.80;99.90;;;;;;6222248;23;19915;-76
2022/09/04 05:38:05;;;;;;;;;;;14.90;99.90;;;;;;6196540;23;19922;-76
2022/09/04 05:40:34;;;;;;;;;;;14.90;99.90;;;;;;6221952;23;19915;-75
2022/09/04 05:43:17;;;;;;;;;;;15.00;99.90;;;;;;6237361;22;19922;-76
2022/09/04 05:45:51;;;;;;;;;;;15.00;99.90;;;;;;6225164;22;19904;-77
2022/09/04 05:48:26;;;;;;;;;;;15.00;99.90;;;;;;6250545;23;19920;-76
2022/09/04 05:50:59;;;;;;;;;;;15.10;99.90;;;;;;6224796;22;19963;-77
2022/09/04 05:53:38;;;;;;;;;;;15.10;99.90;;;;;;6213548;23;19919;-78
2022/09/04 05:56:03;;;;;;;;;;;15.20;99.90;;;;;;6196512;23;20256;-76
2022/09/04 05:58:51;;;;;;;;;;;15.20;99.90;;;;;;6196427;23;20070;-76
2022/09/04 06:01:22;;;;;;;;;;;15.20;99.90;;;;;;6196358;23;19920;-76
2022/09/04 06:04:19;;;;;;;;;;;;;;;;;;;;;
2022/09/04 06:11:12;;;;;;;;;;;15.30;99.90;;;;;;6247651;23;19990;-84
2022/09/04 07:20:09;;;;;;;;;;;18.30;98.00;;;;;;6115648;23;19963;-74
2022/09/04 07:23:08;;;;;;;;;;;18.40;97.70;;;;;;6075810;23;19956;-76
2022/09/04 07:26:27;;;;;;;;;;;18.50;97.80;;;;;;6037885;23;19929;-75
2022/09/04 07:36:16;;;;;;;;;;;18.50;97.90;;;;;;6009156;23;19955;-75
2022/09/04 07:43:11;;;;;;;;;;;18.90;97.80;;;;;;5933708;24;19926;-77
2022/09/04 07:45:37;;;;;;;;;;;19.10;97.80;;;;;;5963076;23;19926;-81
2022/09/04 07:48:24;;;;;;;;;;;19.40;97.60;;;;;;6007936;23;19922;-81
2022/09/04 07:57:24;;;;;;;;;;;19.50;96.60;;;;;;6219161;23;19958;-79
2022/09/04 08:56:30;;;;;;;;;;;21.30;96.10;;;;;;6248407;23;19914;-77
2022/09/04 08:59:18;;;;;;;;;;;21.50;95.70;;;;;;6197055;23;19916;-79
2022/09/04 09:01:59;;;;;;;;;;;21.60;95.80;;;;;;6197510;23;20281;-75
2022/09/04 09:04:47;;;;;;;;;;;21.70;95.50;;;;;;6198330;23;19969;-78
2022/09/04 09:43:45;;;;;;;;;;;22.90;94.80;;;;;;6249061;23;19954;-78
2022/09/04 09:46:11;;;;;;;;;;;23.00;94.40;;;;;;6220894;23;19923;-74
2022/09/04 09:48:56;;;;;;;;;;;22.80;94.40;;;;;;6221615;23;19916;-76
2022/09/04 09:51:33;;;;;;;;;;;23.00;94.70;;;;;;6196978;23;19915;-75
2022/09/04 09:54:07;;;;;;;;;;;23.20;94.00;;;;;;6197317;23;19994;-75
2022/09/04 09:57:00;;;;;;;;;;;23.00;93.60;;;;;;6222618;23;19916;-76
2022/09/04 09:59:42;;;;;;;;;;;23.00;94.10;;;;;;6222004;23;19919;-75
2022/09/04 10:02:15;;;;;;;;;;;23.00;94.00;;;;;;6221745;23;19973;-76
2022/09/04 10:04:40;;;;;;;;;;;23.10;93.60;;;;;;6223498;23;19920;-76
2022/09/04 10:07:27;;;;;;;;;;;23.00;93.70;;;;;;6223242;23;19927;-76
2022/09/04 10:10:11;;;;;;;;;;;23.00;93.80;;;;;;6212377;22;19926;-76
2022/09/04 10:13:09;;;;;;;;;;;23.20;94.10;;;;;;6249963;22;19906;-75
2022/09/04 10:15:36;;;;;;;;;;;23.40;93.80;;;;;;6144213;22;19972;-76
2022/09/04 10:18:21;;;;;;;;;;;23.40;93.80;;;;;;6249887;22;19904;-75
2022/09/04 10:20:48;;;;;;;;;;;23.40;93.30;;;;;;6235245;23;19919;-78
2022/09/04 10:23:32;;;;;;;;;;;23.70;93.40;;;;;;6221296;23;19950;-75
2022/09/04 10:25:58;;;;;;;;;;;23.70;93.20;;;;;;6196430;23;19923;-75
2022/09/04 10:28:32;;;;;;;;;;;23.90;92.40;;;;;;6221473;23;19920;-77
2022/09/04 10:31:01;;;;;;;;;;;24.10;93.20;;;;;;6221313;23;19967;-78
2022/09/04 10:33:49;;;;;;;;;;;23.90;92.90;;;;;;6196563;23;19916;-77
2022/09/04 10:36:31;;;;;;;;;;;24.20;92.40;;;;;;6220834;23;20227;-79
2022/09/04 10:42:25;;;;;;;;;;;24.50;92.60;;;;;;6220694;23;19919;-79
2022/09/04 10:44:54;;;;;;;;;;;24.60;92.10;;;;;;6221702;23;20250;-80
2022/09/04 10:47:23;;;;;;;;;;;24.40;92.20;;;;;;6196628;23;19926;-77
2022/09/04 10:49:52;;;;;;;;;;;24.70;92.10;;;;;;6221674;23;19962;-80
2022/09/04 10:52:50;;;;;;;;;;;24.60;92.00;;;;;;6196214;23;19994;-79
2022/09/04 10:55:52;;;;;;;;;;;24.80;92.00;;;;;;6221028;23;19990;-79
2022/09/04 10:58:24;;;;;;;;;;;24.70;91.80;;;;;;6072295;23;19921;-79
2022/09/04 11:01:09;;;;;;;;;;;24.50;91.40;;;;;;6048186;23;19968;-78
2022/09/04 11:03:56;;;;;;;;;;;24.80;91.30;;;;;;6072079;23;20588;-77
2022/09/04 11:06:27;;;;;;;;;;;24.70;91.30;;;;;;6116210;23;19926;-79
2022/09/04 11:09:12;;;;;;;;;;;24.70;92.00;;;;;;6195795;23;20357;-79
2022/09/04 11:12:04;;;;;;;;;;;24.80;91.20;;;;;;6196026;23;19922;-80
2022/09/04 11:14:50;;;;;;;;;;;24.80;91.10;;;;;;6195569;23;19920;-80
2022/09/04 11:21:06;;;;;;;;;;;25.00;91.40;;;;;;6224583;23;19916;-81
2022/09/04 11:25:01;;;;;;;;;;;;;;;;;;;;;
2022/09/04 11:34:15;;;;;;;;;;;25.20;91.10;;;;;;6070301;23;20005;-81
2022/09/04 11:37:30;;;;;;;;;;;;;;;;;;;;;
2022/09/04 11:44:14;;;;;;;;;;;25.50;90.10;;;;;;6066368;23;19917;-80
2022/09/04 11:47:27;;;;;;;;;;;25.30;91.00;;;;;;6067027;23;19924;-81
2022/09/04 11:50:47;;;;;;;;;;;;;;;;;;;;;
2022/09/04 12:00:34;;;;;;;;;;;25.40;90.20;;;;;;6009512;23;20346;-80
2022/09/04 12:07:32;;;;;;;;;;;25.70;89.60;;;;;;5909301;24;20339;-78
2022/09/04 12:13:51;;;;;;;;;;;25.50;88.80;;;;;;6009197;23;19925;-79
2022/09/04 12:17:14;;;;;;;;;;;;;;;;;;;;;
2022/09/04 12:26:08;;;;;;;;;;;25.80;89.90;;;;;;6059794;23;20264;-78
2022/09/04 12:28:46;;;;;;;;;;;25.50;89.60;;;;;;6041875;23;19928;-75
2022/09/04 12:31:19;;;;;;;;;;;25.60;89.50;;;;;;6066200;23;20285;-80
2022/09/04 12:34:02;;;;;;;;;;;25.80;89.80;;;;;;6066080;23;20029;-77
2022/09/04 12:36:58;;;;;;;;;;;25.80;89.20;;;;;;6042542;23;19917;-78
2022/09/04 12:39:41;;;;;;;;;;;25.60;89.00;;;;;;6042265;23;19926;-78
2022/09/04 12:42:13;;;;;;;;;;;25.80;89.30;;;;;;6101350;23;19917;-78
2022/09/04 12:44:45;;;;;;;;;;;25.80;89.10;;;;;;6148719;23;20271;-79
2022/09/04 12:47:13;;;;;;;;;;;26.00;88.50;;;;;;6142643;23;20052;-80
2022/09/04 12:49:58;;;;;;;;;;;25.90;89.70;;;;;;6136900;23;19916;-79
2022/09/04 12:52:39;;;;;;;;;;;26.10;88.60;;;;;;6194723;23;20288;-79
2022/09/04 12:55:05;;;;;;;;;;;25.90;88.50;;;;;;6194402;23;19977;-79
2022/09/04 12:57:45;;;;;;;;;;;26.00;88.00;;;;;;6219582;23;20334;-78
2022/09/04 13:00:16;;;;;;;;;;;25.90;88.60;;;;;;6194903;23;19926;-79
2022/09/04 13:06:12;;;;;;;;;;;26.00;88.70;;;;;;6219102;23;19919;-76
2022/09/04 13:09:19;;;;;;;;;;;26.10;87.90;;;;;;6194474;23;19961;-80
2022/09/04 13:15:31;;;;;;;;;;;26.10;89.20;;;;;;6123868;23;19924;-77
2022/09/04 13:18:43;;;;;;;;;;;26.10;88.30;;;;;;6077175;23;19917;-80
2022/09/04 13:25:11;;;;;;;;;;;26.10;87.30;;;;;;6179671;23;20346;-79
2022/09/04 13:28:01;;;;;;;;;;;26.10;88.00;;;;;;6072771;23;19921;-75
2022/09/04 13:30:28;;;;;;;;;;;26.20;87.40;;;;;;6190712;23;19922;-76
2022/09/04 13:33:10;;;;;;;;;;;26.20;87.80;;;;;;6194193;23;19919;-75
2022/09/04 13:35:41;;;;;;;;;;;26.30;87.60;;;;;;6194532;23;20223;-75
2022/09/04 13:38:18;;;;;;;;;;;26.50;87.20;;;;;;6194349;23;19915;-80
2022/09/04 13:40:54;;;;;;;;;;;26.50;87.00;;;;;;6196144;23;19972;-78
2022/09/04 13:44:12;;;;;;;;;;;26.60;87.90;;;;;;6194491;23;19990;-83
2022/09/04 13:47:07;;;;;;;;;;;26.70;87.40;;;;;;6237903;23;19923;-81
2022/09/04 13:50:07;;;;;;;;;;;26.60;87.20;;;;;;6050759;23;19968;-79
2022/09/04 13:53:02;;;;;;;;;;;26.60;87.70;;;;;;6186921;23;19957;-79
2022/09/04 13:55:33;;;;;;;;;;;26.40;87.90;;;;;;6196468;23;19970;-80
2022/09/04 13:58:14;;;;;;;;;;;26.50;87.30;;;;;;6193489;23;19922;-80
2022/09/04 14:00:44;;;;;;;;;;;26.40;88.10;;;;;;6196000;23;20326;-80
2022/09/04 14:03:13;;;;;;;;;;;26.70;88.50;;;;;;6196380;23;19915;-79
2022/09/04 14:05:39;;;;;;;;;;;26.60;86.90;;;;;;6195969;23;20001;-79
2022/09/04 14:08:17;;;;;;;;;;;26.50;86.60;;;;;;6196229;23;19916;-79
2022/09/04 14:10:43;;;;;;;;;;;26.70;86.10;;;;;;6204379;23;19947;-79
2022/09/04 14:13:18;;;;;;;;;;;26.60;87.40;;;;;;6206841;23;19934;-81
2022/09/04 14:15:50;;;;;;;;;;;26.40;85.30;;;;;;6197513;23;19916;-78
2022/09/04 14:18:26;;;;;;;;;;;26.40;87.10;;;;;;6196679;23;19923;-80
2022/09/04 14:20:59;;;;;;;;;;;26.40;85.60;;;;;;6196118;23;19915;-80
2022/09/04 14:23:25;;;;;;;;;;;26.50;86.00;;;;;;6195631;23;19923;-79
2022/09/04 14:29:29;;;;;;;;;;;26.40;86.00;;;;;;6247989;23;19934;-78
2022/09/04 14:32:43;;;;;;;;;;;26.50;86.60;;;;;;6130691;23;19973;-79
2022/09/04 14:35:43;;;;;;;;;;;;;;;;;;;;;
2022/09/04 14:38:30;;;;;;;;;;;;;;;;;;;;;
2022/09/04 14:47:36;;;;;;;;;;;;;;;;;;;;;
2022/09/04 14:50:53;;;;;;;;;;;26.60;86.10;;;;;;6152882;23;19917;-81
2022/09/04 14:57:21;;;;;;;;;;;26.50;85.90;;;;;;6130536;23;20316;-81
2022/09/04 15:00:18;;;;;;;;;;;26.40;85.60;;;;;;6132609;23;19960;-78
2022/09/04 15:03:14;;;;;;;;;;;26.30;86.60;;;;;;6124758;23;19924;-80
2022/09/04 15:09:24;;;;;;;;;;;26.10;86.30;;;;;;6070655;23;19917;-76
2022/09/04 15:11:55;;;;;;;;;;;25.90;87.30;;;;;;6194892;23;19963;-78
2022/09/04 15:14:35;;;;;;;;;;;25.90;87.50;;;;;;6220765;23;19923;-76
2022/09/04 15:17:03;;;;;;;;;;;25.90;88.90;;;;;;6247520;23;19922;-75
2022/09/04 15:19:55;;;;;;;;;;;26.00;87.80;;;;;;6195844;23;19924;-77
2022/09/04 15:22:23;;;;;;;;;;;25.90;87.20;;;;;;6188020;23;19926;-77
2022/09/04 15:24:57;;;;;;;;;;;25.80;88.10;;;;;;6220575;23;19920;-78
2022/09/04 15:27:27;;;;;;;;;;;25.70;87.60;;;;;;6195191;23;19962;-78
2022/09/04 15:29:52;;;;;;;;;;;25.70;86.40;;;;;;6193848;23;19986;-77
2022/09/04 15:32:23;;;;;;;;;;;25.60;87.80;;;;;;6193303;23;20294;-78
2022/09/04 15:35:20;;;;;;;;;;;25.60;88.60;;;;;;6193438;23;20444;-77
2022/09/04 15:37:47;;;;;;;;;;;25.70;87.90;;;;;;6187291;23;19916;-77
2022/09/04 15:40:21;;;;;;;;;;;25.60;87.50;;;;;;6218493;23;19920;-78
2022/09/04 15:43:05;;;;;;;;;;;25.60;88.60;;;;;;6219478;23;19916;-78
2022/09/04 15:45:43;;;;;;;;;;;25.50;88.30;;;;;;6220201;23;19915;-77
2022/09/04 15:48:09;;;;;;;;;;;25.50;87.60;;;;;;6194816;23;19950;-76
2022/09/04 15:50:43;;;;;;;;;;;25.50;87.50;;;;;;6220324;23;19957;-77
2022/09/04 15:53:19;;;;;;;;;;;25.50;87.90;;;;;;6195177;23;20339;-77
2022/09/04 15:55:47;;;;;;;;;;;25.50;87.50;;;;;;6194996;23;20330;-77
2022/09/04 15:58:18;;;;;;;;;;;25.40;88.90;;;;;;6220191;23;20001;-77
2022/09/04 16:01:04;;;;;;;;;;;25.40;87.10;;;;;;6219851;23;19922;-77
2022/09/04 16:03:35;;;;;;;;;;;25.40;88.50;;;;;;6194891;23;19916;-77
2022/09/04 16:06:04;;;;;;;;;;;25.40;87.20;;;;;;6247013;23;19969;-78
2022/09/04 16:08:29;;;;;;;;;;;25.30;87.20;;;;;;6219572;23;19915;-77
2022/09/04 16:11:01;;;;;;;;;;;25.30;88.10;;;;;;6195213;23;19977;-79
2022/09/04 16:13:27;;;;;;;;;;;25.20;88.10;;;;;;6195232;23;19920;-76
2022/09/04 16:15:59;;;;;;;;;;;25.20;90.10;;;;;;6220418;23;19915;-77
2022/09/04 16:18:38;;;;;;;;;;;25.10;90.00;;;;;;6220390;23;19920;-77
2022/09/04 16:21:09;;;;;;;;;;;25.10;90.00;;;;;;6219866;23;20254;-77
2022/09/04 16:23:37;;;;;;;;;;;25.20;89.00;;;;;;6219978;23;19919;-77
2022/09/04 16:26:29;;;;;;;;;;;25.10;89.80;;;;;;6194621;23;19919;-77
2022/09/04 16:29:02;;;;;;;;;;;25.10;89.60;;;;;;6213211;23;19923;-77
2022/09/04 16:31:33;;;;;;;;;;;25.10;89.00;;;;;;6247539;23;19915;-77
2022/09/04 16:34:17;;;;;;;;;;;25.20;88.10;;;;;;6194833;23;19915;-77
2022/09/04 16:36:44;;;;;;;;;;;25.10;88.10;;;;;;6195195;23;19916;-77
2022/09/04 16:39:25;;;;;;;;;;;25.10;88.30;;;;;;6194790;23;19919;-77
2022/09/04 16:41:51;;;;;;;;;;;25.10;89.70;;;;;;6194356;23;19923;-77
2022/09/04 16:44:21;;;;;;;;;;;25.00;90.10;;;;;;6195405;23;19919;-76
2022/09/04 16:47:01;;;;;;;;;;;24.90;91.30;;;;;;6219711;23;20330;-76
2022/09/04 16:49:39;;;;;;;;;;;24.80;90.90;;;;;;6219748;23;19919;-77
2022/09/04 16:52:25;;;;;;;;;;;24.80;91.80;;;;;;6194393;23;19923;-78
2022/09/04 16:54:54;;;;;;;;;;;24.70;91.80;;;;;;6219612;23;19920;-76
2022/09/04 16:57:40;;;;;;;;;;;24.70;92.00;;;;;;6219570;23;19916;-76
2022/09/04 17:00:10;;;;;;;;;;;24.70;92.20;;;;;;6219320;23;20390;-76
2022/09/04 17:02:45;;;;;;;;;;;24.70;92.10;;;;;;6219514;23;19916;-75
2022/09/04 17:05:17;;;;;;;;;;;24.50;91.50;;;;;;6194534;23;19938;-75
2022/09/04 17:07:47;;;;;;;;;;;24.30;91.20;;;;;;6219606;23;19939;-76
2022/09/04 17:10:19;;;;;;;;;;;24.30;90.90;;;;;;6219529;23;19927;-76
2022/09/04 17:13:20;;;;;;;;;;;24.20;91.00;;;;;;6219888;23;19959;-77
2022/09/04 17:15:56;;;;;;;;;;;24.30;90.60;;;;;;6070976;23;20424;-75
2022/09/04 17:18:23;;;;;;;;;;;24.10;90.40;;;;;;6226113;23;19919;-75
2022/09/04 17:20:48;;;;;;;;;;;24.10;90.30;;;;;;6221847;23;20326;-77
2022/09/04 17:23:14;;;;;;;;;;;24.00;90.60;;;;;;6196737;23;19977;-76
2022/09/04 17:25:40;;;;;;;;;;;23.90;90.90;;;;;;6224030;23;19923;-78
2022/09/04 17:28:11;;;;;;;;;;;23.80;90.90;;;;;;6223525;23;20398;-76
2022/09/04 17:30:39;;;;;;;;;;;23.70;91.10;;;;;;6248851;23;19927;-77
2022/09/04 17:33:15;;;;;;;;;;;23.60;91.30;;;;;;6197628;23;19919;-78
2022/09/04 17:35:44;;;;;;;;;;;23.50;91.60;;;;;;6224872;22;19970;-78
2022/09/04 17:38:19;;;;;;;;;;;23.40;91.90;;;;;;6249487;22;19919;-77
2022/09/04 17:41:06;;;;;;;;;;;23.40;92.00;;;;;;6248759;22;19918;-77
2022/09/04 17:43:31;;;;;;;;;;;23.30;91.60;;;;;;6225059;23;19910;-77
2022/09/04 17:46:07;;;;;;;;;;;23.30;91.40;;;;;;6247284;23;19920;-77
2022/09/04 17:48:38;;;;;;;;;;;23.30;91.80;;;;;;6196603;23;20250;-78
2022/09/04 17:51:06;;;;;;;;;;;23.20;91.90;;;;;;6197036;23;20254;-77
2022/09/04 17:53:39;;;;;;;;;;;23.10;92.20;;;;;;6196818;23;20227;-77
2022/09/04 17:56:14;;;;;;;;;;;23.00;92.50;;;;;;6221329;23;19945;-76
2022/09/04 17:58:55;;;;;;;;;;;22.90;93.10;;;;;;6219925;23;20365;-75
2022/09/04 18:01:23;;;;;;;;;;;22.90;93.20;;;;;;6220364;23;19919;-77
2022/09/04 18:04:08;;;;;;;;;;;22.70;93.50;;;;;;6220970;23;20333;-77
2022/09/04 18:06:39;;;;;;;;;;;22.70;93.60;;;;;;6196085;23;19927;-78
2022/09/04 18:09:10;;;;;;;;;;;22.60;93.30;;;;;;6221439;23;19923;-78
2022/09/04 18:11:39;;;;;;;;;;;22.50;92.80;;;;;;6222671;23;19955;-76
2022/09/04 18:14:11;;;;;;;;;;;22.50;92.70;;;;;;6221269;23;19924;-76
2022/09/04 18:16:47;;;;;;;;;;;22.50;92.20;;;;;;6235073;23;19942;-77
2022/09/04 18:19:29;;;;;;;;;;;22.50;92.00;;;;;;6231479;23;19915;-70
2022/09/04 18:22:00;;;;;;;;;;;22.50;91.90;;;;;;6234456;23;20002;-71
2022/09/04 18:24:34;;;;;;;;;;;22.40;91.90;;;;;;6248041;23;20302;-69
2022/09/04 18:27:19;;;;;;;;;;;22.40;91.60;;;;;;6195353;23;20421;-70
2022/09/04 18:30:04;;;;;;;;;;;22.30;91.80;;;;;;6195250;23;19923;-71
2022/09/04 18:32:44;;;;;;;;;;;22.30;91.80;;;;;;6221037;23;19928;-70
2022/09/04 18:35:13;;;;;;;;;;;22.20;91.90;;;;;;6221014;23;20326;-70
2022/09/04 18:37:58;;;;;;;;;;;22.20;91.60;;;;;;6220755;23;19923;-70
2022/09/04 18:40:45;;;;;;;;;;;22.10;91.70;;;;;;6247462;23;19919;-69
2022/09/04 18:43:19;;;;;;;;;;;22.00;91.50;;;;;;6195859;23;19970;-67
2022/09/04 18:45:55;;;;;;;;;;;22.00;91.70;;;;;;6220723;23;19947;-69
2022/09/04 18:48:22;;;;;;;;;;;21.90;91.90;;;;;;6220823;23;19919;-68
2022/09/04 18:50:47;;;;;;;;;;;21.80;91.90;;;;;;6247511;23;19920;-68
2022/09/04 18:53:16;;;;;;;;;;;21.80;92.00;;;;;;6221038;23;20253;-70
2022/09/04 18:55:49;;;;;;;;;;;21.70;92.00;;;;;;6195571;23;19994;-70
2022/09/04 18:58:35;;;;;;;;;;;21.70;92.00;;;;;;6220653;23;19924;-70
2022/09/04 19:01:06;;;;;;;;;;;21.70;92.10;;;;;;6195400;23;19920;-71
2022/09/04 19:03:32;;;;;;;;;;;21.60;92.10;;;;;;6220899;23;20285;-69
2022/09/04 19:06:00;;;;;;;;;;;21.50;92.30;;;;;;6220636;23;19920;-69
2022/09/04 19:08:30;;;;;;;;;;;21.50;92.40;;;;;;6220297;23;19923;-71
2022/09/04 19:11:02;;;;;;;;;;;21.50;92.30;;;;;;6220567;23;19919;-69
2022/09/04 19:13:31;;;;;;;;;;;21.50;92.40;;;;;;6195623;23;19942;-69
2022/09/04 19:16:09;;;;;;;;;;;21.50;92.30;;;;;;6220434;23;19919;-69
2022/09/04 19:18:42;;;;;;;;;;;21.50;92.40;;;;;;6247227;23;19930;-68
2022/09/04 19:21:08;;;;;;;;;;;21.50;92.70;;;;;;6219923;23;19923;-69
2022/09/04 19:23:41;;;;;;;;;;;21.40;92.40;;;;;;6220334;23;19951;-71
2022/09/04 19:26:10;;;;;;;;;;;21.40;92.40;;;;;;6194859;23;19920;-70
2022/09/04 19:28:45;;;;;;;;;;;21.40;92.50;;;;;;6220192;23;19926;-70
2022/09/04 19:31:16;;;;;;;;;;;21.40;92.70;;;;;;6220285;23;20357;-69
2022/09/04 19:33:52;;;;;;;;;;;21.30;92.60;;;;;;6220526;23;20256;-69
2022/09/04 19:36:20;;;;;;;;;;;21.30;92.80;;;;;;6220441;23;19974;-69